createdAt,value
2023-01-19T00:00:45.570Z,94458.44
2023-01-19T00:03:16.248Z,94460.75
2023-01-19T00:05:46.391Z,94449.50
2023-01-19T00:08:16.733Z,94455.66
2023-01-19T00:10:45.676Z,94453.19
2023-01-19T00:13:13.130Z,94461.44
2023-01-19T00:15:39.748Z,94466.44
2023-01-19T00:18:07.353Z,94460.13
2023-01-19T00:20:37.877Z,94465.06
2023-01-19T00:23:04.951Z,94467.63
2023-01-19T00:25:31.825Z,94471.97
2023-01-19T00:28:00.661Z,94469.97
2023-01-19T00:30:28.308Z,94468.50
2023-01-19T00:32:54.927Z,94477.91
2023-01-19T00:35:21.492Z,94469.69
2023-01-19T00:37:48.034Z,94480.13
2023-01-19T00:40:14.764Z,94470.81
2023-01-19T00:42:44.163Z,94473.25
2023-01-19T00:45:13.484Z,94474.09
2023-01-19T00:47:40.086Z,94475.09
2023-01-19T00:50:08.740Z,94476.00
2023-01-19T00:52:35.278Z,94475.03
2023-01-19T00:55:01.940Z,94480.59
2023-01-19T00:57:29.588Z,94470.91
2023-01-19T00:59:56.326Z,94471.88
2023-01-19T01:02:23.437Z,94473.13
2023-01-19T01:04:55.002Z,94470.38
2023-01-19T01:07:22.420Z,94471.53
2023-01-19T01:09:49.009Z,94478.06
2023-01-19T01:12:15.610Z,94477.38
2023-01-19T01:14:42.487Z,94481.47
2023-01-19T01:17:11.545Z,94485.34
2023-01-19T01:19:38.849Z,94479.34
2023-01-19T01:22:05.674Z,94490.22
2023-01-19T01:24:35.716Z,94487.50
2023-01-19T01:27:02.462Z,94485.34
2023-01-19T01:29:28.992Z,94502.53
2023-01-19T01:31:55.657Z,94493.69
2023-01-19T01:34:22.262Z,94485.31
2023-01-19T01:36:48.795Z,94495.06
2023-01-19T01:39:15.386Z,94493.84
2023-01-19T01:41:42.018Z,94493.28
2023-01-19T01:44:50.228Z,94505.28
2023-01-19T01:47:33.958Z,94505.84
2023-01-19T01:50:07.429Z,94502.75
2023-01-19T01:52:38.936Z,94499.88
2023-01-19T01:55:09.501Z,94509.28
2023-01-19T01:57:39.227Z,94516.75
2023-01-19T02:00:06.875Z,94517.75
2023-01-19T02:02:51.054Z,94515.56
2023-01-19T02:05:36.867Z,94521.59
2023-01-19T02:08:43.860Z,94518.09
2023-01-19T02:11:29.794Z,94517.44
2023-01-19T02:13:56.478Z,94516.59
2023-01-19T02:16:23.150Z,94521.53
2023-01-19T02:18:50.024Z,94515.63
2023-01-19T02:21:22.684Z,94523.22
2023-01-19T02:23:56.958Z,94514.88
2023-01-19T02:26:27.350Z,94521.78
2023-01-19T02:29:03.786Z,94518.78
2023-01-19T02:31:32.159Z,94519.84
2023-01-19T02:34:01.901Z,94519.19
2023-01-19T02:36:39.875Z,94520.44
2023-01-19T02:39:08.622Z,94522.06
2023-01-19T02:41:42.264Z,94521.09
2023-01-19T02:44:11.176Z,94522.13
2023-01-19T02:46:38.879Z,94516.72
2023-01-19T02:49:05.449Z,94529.03
2023-01-19T02:51:33.079Z,94526.69
2023-01-19T02:54:24.615Z,94532.44
2023-01-19T02:56:55.101Z,94511.03
2023-01-19T02:59:54.829Z,94521.66
2023-01-19T03:02:52.349Z,94517.41
2023-01-19T03:05:31.135Z,94517.69
2023-01-19T03:08:22.421Z,94517.97
2023-01-19T03:11:02.922Z,94515.34
2023-01-19T03:13:42.151Z,94506.97
2023-01-19T03:16:12.042Z,94509.31
2023-01-19T03:18:42.895Z,94512.63
2023-01-19T03:21:11.212Z,94510.97
2023-01-19T03:23:41.807Z,94515.56
2023-01-19T03:26:11.924Z,94521.13
2023-01-19T03:28:42.247Z,94522.34
2023-01-19T03:31:16.680Z,94522.56
2023-01-19T03:33:47.159Z,94522.47
2023-01-19T03:36:49.108Z,94526.69
2023-01-19T03:39:21.798Z,94537.94
2023-01-19T03:41:51.746Z,94533.00
2023-01-19T03:44:18.481Z,94537.81
2023-01-19T03:46:48.069Z,94530.94
2023-01-19T03:49:14.674Z,94533.06
2023-01-19T03:51:41.545Z,94532.09
2023-01-19T03:54:10.649Z,94534.84
2023-01-19T03:56:37.716Z,94537.25
2023-01-19T03:59:06.008Z,94551.25
2023-01-19T04:01:32.842Z,94547.00
2023-01-19T04:03:59.519Z,94545.97
2023-01-19T04:06:26.977Z,94538.44
2023-01-19T04:08:53.989Z,94547.63
2023-01-19T04:11:20.980Z,94544.25
2023-01-19T04:13:48.046Z,94545.63
2023-01-19T04:16:20.242Z,94538.50
2023-01-19T04:18:47.499Z,94550.91
2023-01-19T04:21:14.176Z,94554.97
2023-01-19T04:23:40.856Z,94538.69
2023-01-19T04:26:10.366Z,94549.19
2023-01-19T04:28:37.598Z,94555.25
2023-01-19T04:31:06.413Z,94550.31
2023-01-19T04:33:33.715Z,94549.00
2023-01-19T04:36:00.298Z,94545.31
2023-01-19T04:38:26.993Z,94546.00
2023-01-19T04:40:54.291Z,94551.25
2023-01-19T04:43:22.450Z,94546.75
2023-01-19T04:45:49.482Z,94552.69
2023-01-19T04:48:19.537Z,94555.25
2023-01-19T04:50:46.756Z,94555.06
2023-01-19T04:53:13.970Z,94556.63
2023-01-19T04:55:41.143Z,94558.44
2023-01-19T04:58:08.043Z,94565.44
2023-01-19T05:00:34.721Z,94561.53
2023-01-19T05:03:02.026Z,94560.81
2023-01-19T05:05:29.669Z,94572.41
2023-01-19T05:07:56.234Z,94556.78
2023-01-19T05:10:23.816Z,94569.03
2023-01-19T05:12:51.298Z,94570.78
2023-01-19T05:15:18.109Z,94577.16
2023-01-19T05:17:44.717Z,94575.66
2023-01-19T05:20:15.698Z,94564.41
2023-01-19T05:22:42.869Z,94566.06
2023-01-19T05:25:09.830Z,94573.16
2023-01-19T05:27:37.162Z,94566.81
2023-01-19T05:30:05.496Z,94568.28
2023-01-19T05:32:32.676Z,94575.84
2023-01-19T05:34:59.360Z,94564.91
2023-01-19T05:37:26.132Z,94570.06
2023-01-19T05:39:53.386Z,94588.69
2023-01-19T05:42:20.086Z,94585.88
2023-01-19T05:44:46.701Z,94580.09
2023-01-19T05:47:13.269Z,94577.16
2023-01-19T05:49:39.857Z,94589.09
2023-01-19T05:52:06.684Z,94577.81
2023-01-19T05:54:33.385Z,94581.34
2023-01-19T05:57:00.155Z,94583.75
2023-01-19T05:59:26.755Z,94584.03
2023-01-19T06:01:54.367Z,94579.44
2023-01-19T06:04:21.295Z,94578.41
2023-01-19T06:06:48.901Z,94584.88
2023-01-19T06:09:15.443Z,94585.09
2023-01-19T06:11:41.982Z,94592.47
2023-01-19T06:14:10.584Z,94592.94
2023-01-19T06:16:37.374Z,94580.88
2023-01-19T06:19:04.304Z,94585.34
2023-01-19T06:21:30.852Z,94592.81
2023-01-19T06:23:57.684Z,94589.09
2023-01-19T06:26:24.534Z,94599.78
2023-01-19T06:28:52.064Z,94604.00
2023-01-19T06:31:18.876Z,94604.31
2023-01-19T06:33:45.479Z,94601.03
2023-01-19T06:36:12.094Z,94601.63
2023-01-19T06:38:38.787Z,94608.63
2023-01-19T06:41:05.728Z,94605.88
2023-01-19T06:43:32.896Z,94606.22
2023-01-19T06:46:03.116Z,94607.53
2023-01-19T06:48:29.969Z,94611.28
2023-01-19T06:50:58.604Z,94607.94
2023-01-19T06:53:28.003Z,94614.69
2023-01-19T06:55:58.921Z,94614.25
2023-01-19T06:58:25.760Z,94614.78
2023-01-19T07:00:52.493Z,94616.38
2023-01-19T07:03:21.987Z,94613.13
2023-01-19T07:05:53.331Z,94627.34
2023-01-19T07:08:20.218Z,94635.09
2023-01-19T07:11:24.734Z,94633.47
2023-01-19T07:13:34.430Z,94620.25
2023-01-19T07:16:09.334Z,94639.22
2023-01-19T07:18:37.502Z,94623.56
2023-01-19T07:21:05.154Z,94642.34
2023-01-19T07:23:32.110Z,94647.31
2023-01-19T07:26:01.030Z,94643.81
2023-01-19T07:28:31.698Z,94647.03
2023-01-19T07:30:58.840Z,94640.66
2023-01-19T07:33:26.277Z,94647.66
2023-01-19T07:35:53.579Z,94656.59
2023-01-19T07:38:20.608Z,94644.13
2023-01-19T07:40:47.382Z,94666.50
2023-01-19T07:43:14.992Z,94665.47
2023-01-19T07:45:41.881Z,94661.09
2023-01-19T07:48:08.596Z,94668.84
2023-01-19T07:50:35.318Z,94672.72
2023-01-19T07:53:07.305Z,94664.63
2023-01-19T07:55:34.238Z,94672.91
2023-01-19T07:58:01.316Z,94664.31
2023-01-19T08:00:27.856Z,94671.81
2023-01-19T08:03:00.283Z,94676.44
2023-01-19T08:05:29.198Z,94687.13
2023-01-19T08:07:57.640Z,94685.19
2023-01-19T08:10:26.765Z,94681.13
2023-01-19T08:12:54.453Z,94690.53
2023-01-19T08:15:23.966Z,94685.69
2023-01-19T08:18:01.962Z,94698.66
2023-01-19T08:20:29.979Z,94695.22
2023-01-19T08:23:00.434Z,94702.25
2023-01-19T08:25:39.531Z,94703.94
2023-01-19T08:28:07.296Z,94700.94
2023-01-19T08:30:35.044Z,94714.41
2023-01-19T08:33:04.670Z,94705.84
2023-01-19T08:35:32.535Z,94713.47
2023-01-19T08:38:01.598Z,94728.19
2023-01-19T08:40:29.721Z,94727.72
2023-01-19T08:43:07.937Z,94741.75
2023-01-19T08:45:41.476Z,94737.41
2023-01-19T08:48:08.305Z,94721.69
2023-01-19T08:50:34.921Z,94739.97
2023-01-19T08:53:03.593Z,94733.41
2023-01-19T08:55:30.685Z,94723.19
2023-01-19T08:58:00.184Z,94731.78
2023-01-19T09:00:27.503Z,94722.00
2023-01-19T09:02:55.019Z,94724.66
2023-01-19T09:05:21.835Z,94723.59
2023-01-19T09:07:48.508Z,94739.59
2023-01-19T09:10:16.510Z,94729.56
2023-01-19T09:12:44.958Z,94740.63
2023-01-19T09:15:13.995Z,94735.56
2023-01-19T09:17:42.310Z,94740.88
2023-01-19T09:20:09.552Z,94739.50
2023-01-19T09:22:36.159Z,94736.56
2023-01-19T09:28:50.303Z,94733.91
2023-01-19T09:31:17.643Z,94746.19
2023-01-19T09:33:44.325Z,94744.41
2023-01-19T09:36:11.050Z,94754.84
2023-01-19T09:38:38.429Z,94748.19
2023-01-19T09:41:18.319Z,94743.84
2023-01-19T09:43:49.448Z,94743.41
2023-01-19T09:46:25.175Z,94751.97
2023-01-19T09:48:58.221Z,94749.13
2023-01-19T09:51:28.308Z,94758.63
2023-01-19T09:54:06.950Z,94762.66
2023-01-19T09:56:34.079Z,94760.72
2023-01-19T09:59:01.159Z,94764.47
2023-01-19T10:01:40.917Z,94765.53
2023-01-19T10:04:31.477Z,94775.72
2023-01-19T10:07:10.030Z,94772.94
2023-01-19T10:09:39.681Z,94770.91
2023-01-19T10:12:29.786Z,94777.84
2023-01-19T10:15:04.215Z,94787.63
2023-01-19T10:17:33.779Z,94786.13
2023-01-19T10:20:03.406Z,94786.34
2023-01-19T10:22:30.003Z,94779.75
2023-01-19T10:25:00.842Z,94788.09
2023-01-19T10:27:34.570Z,94786.28
2023-01-19T10:30:02.173Z,94786.97
2023-01-19T10:32:36.014Z,94786.25
2023-01-19T10:35:21.994Z,94784.69
2023-01-19T10:37:48.810Z,94789.38
2023-01-19T10:40:27.957Z,94785.13
2023-01-19T10:42:57.140Z,94788.66
2023-01-19T10:45:30.330Z,94783.41
2023-01-19T10:48:07.278Z,94788.47
2023-01-19T10:50:40.877Z,94786.16
2023-01-19T10:53:21.831Z,94769.53
2023-01-19T10:56:09.532Z,94784.78
2023-01-19T10:58:36.057Z,94772.84
2023-01-19T11:01:26.645Z,94766.72
2023-01-19T11:03:54.870Z,94782.97
2023-01-19T11:06:23.037Z,94769.09
2023-01-19T11:08:51.892Z,94783.69
2023-01-19T11:11:23.612Z,94794.81
2023-01-19T11:14:07.196Z,94789.91
2023-01-19T11:16:35.421Z,94787.16
2023-01-19T11:19:03.522Z,94773.75
2023-01-19T11:21:32.928Z,94771.22
2023-01-19T11:24:05.479Z,94780.25
2023-01-19T11:26:42.069Z,94772.31
2023-01-19T11:29:23.840Z,94752.91
2023-01-19T11:31:51.929Z,94773.69
2023-01-19T11:34:26.598Z,94772.16
2023-01-19T11:37:02.329Z,94766.50
2023-01-19T11:39:32.672Z,94764.88
2023-01-19T11:42:02.709Z,94762.00
2023-01-19T11:44:31.046Z,94769.63
2023-01-19T11:47:19.603Z,94767.56
2023-01-19T11:50:04.668Z,94764.06
2023-01-19T11:52:34.489Z,94773.78
2023-01-19T11:55:12.790Z,94772.75
2023-01-19T11:57:46.967Z,94766.66
2023-01-19T12:00:37.155Z,94758.50
2023-01-19T12:03:16.731Z,94762.28
2023-01-19T12:05:51.217Z,94758.31
2023-01-19T12:08:37.112Z,94753.31
2023-01-19T12:11:05.948Z,94753.38
2023-01-19T12:13:35.673Z,94751.59
2023-01-19T12:16:21.121Z,94755.03
2023-01-19T12:19:18.447Z,94754.88
2023-01-19T12:21:48.431Z,94752.56
2023-01-19T12:24:31.727Z,94751.59
2023-01-19T12:27:01.999Z,94747.84
2023-01-19T12:29:33.807Z,94747.84
2023-01-19T12:32:18.606Z,94763.59
2023-01-19T12:34:49.733Z,94751.78
2023-01-19T12:37:31.310Z,94757.16
2023-01-19T12:40:19.013Z,94741.06
2023-01-19T12:42:59.036Z,94749.94
2023-01-19T12:45:31.790Z,94757.16
2023-01-19T12:47:58.741Z,94752.28
2023-01-19T12:50:26.153Z,94757.78
2023-01-19T12:52:59.402Z,94753.78
2023-01-19T12:55:27.498Z,94755.59
2023-01-19T12:58:18.728Z,94755.94
2023-01-19T13:00:48.320Z,94766.22
2023-01-19T13:03:17.890Z,94754.81
2023-01-19T13:05:44.649Z,94740.63
2023-01-19T13:08:13.763Z,94745.19
2023-01-19T13:10:55.453Z,94751.88
2023-01-19T13:13:42.549Z,94749.34
2023-01-19T13:16:18.288Z,94751.25
2023-01-19T13:18:52.916Z,94754.94
2023-01-19T13:21:42.357Z,94750.22
2023-01-19T13:24:14.950Z,94754.59
2023-01-19T13:26:50.643Z,94760.84
2023-01-19T13:29:38.042Z,94753.31
2023-01-19T13:32:15.988Z,94761.00
2023-01-19T13:34:51.449Z,94757.34
2023-01-19T13:37:39.593Z,94748.50
2023-01-19T13:40:07.069Z,94750.50
2023-01-19T13:42:37.759Z,94750.09
2023-01-19T13:45:30.594Z,94745.28
2023-01-19T13:47:59.855Z,94755.22
2023-01-19T13:50:30.167Z,94740.50
2023-01-19T13:52:58.945Z,94739.28
2023-01-19T13:55:31.005Z,94746.97
2023-01-19T13:57:58.134Z,94752.47
2023-01-19T14:00:31.186Z,94744.06
2023-01-19T14:03:21.579Z,94748.88
2023-01-19T14:05:54.932Z,94746.59
2023-01-19T14:08:22.681Z,94745.94
2023-01-19T14:10:52.222Z,94734.41
2023-01-19T14:13:43.333Z,94728.56
2023-01-19T14:16:16.686Z,94745.59
2023-01-19T14:18:43.682Z,94745.72
2023-01-19T14:21:15.188Z,94739.28
2023-01-19T14:24:10.994Z,94740.03
2023-01-19T14:26:37.584Z,94733.88
2023-01-19T14:29:35.101Z,94747.91
2023-01-19T14:32:01.634Z,94739.63
2023-01-19T14:34:39.031Z,94736.59
2023-01-19T14:37:16.212Z,94751.50
2023-01-19T14:40:27.311Z,94745.47
2023-01-19T14:43:06.280Z,94746.38
2023-01-19T14:45:38.043Z,94740.28
2023-01-19T14:48:17.822Z,94740.97
2023-01-19T14:51:01.343Z,94746.81
2023-01-19T14:53:29.910Z,94746.25
2023-01-19T14:56:05.430Z,94751.63
2023-01-19T14:58:34.364Z,94752.56
2023-01-19T15:01:01.757Z,94761.53
2023-01-19T15:03:43.336Z,94760.91
2023-01-19T15:06:19.001Z,94756.59
2023-01-19T15:08:46.441Z,94762.78
2023-01-19T15:11:22.028Z,94767.00
2023-01-19T15:13:49.806Z,94762.31
2023-01-19T15:16:16.941Z,94761.00
2023-01-19T15:18:43.534Z,94762.47
2023-01-19T15:21:26.704Z,94758.03
2023-01-19T15:23:54.634Z,94765.69
2023-01-19T15:26:23.968Z,94769.47
2023-01-19T15:28:51.090Z,94759.69
2023-01-19T15:31:22.814Z,94768.19
2023-01-19T15:33:49.832Z,94767.09
2023-01-19T15:36:18.829Z,94773.78
2023-01-19T15:38:46.425Z,94767.69
2023-01-19T15:41:26.198Z,94768.94
2023-01-19T15:43:53.371Z,94759.47
2023-01-19T15:46:20.903Z,94765.72
2023-01-19T15:48:48.501Z,94765.31
2023-01-19T15:51:17.693Z,94760.44
2023-01-19T15:53:45.029Z,94773.69
2023-01-19T15:56:25.573Z,94770.56
2023-01-19T15:58:53.567Z,94770.91
2023-01-19T16:01:31.143Z,94769.53
2023-01-19T16:04:00.468Z,94765.91
2023-01-19T16:06:27.398Z,94765.31
2023-01-19T16:08:59.235Z,94772.44
2023-01-19T16:11:26.921Z,94774.81
2023-01-19T16:13:53.491Z,94766.53
2023-01-19T16:16:23.477Z,94771.88
2023-01-19T16:18:50.498Z,94772.97
2023-01-19T16:21:17.859Z,94764.28
2023-01-19T16:23:44.583Z,94767.78
2023-01-19T16:26:24.919Z,94780.78
2023-01-19T16:28:51.487Z,94781.00
2023-01-19T16:31:18.153Z,94786.28
2023-01-19T16:33:45.471Z,94787.84
2023-01-19T16:36:30.339Z,94785.75
2023-01-19T16:39:02.455Z,94791.06
2023-01-19T16:41:29.083Z,94801.00
2023-01-19T16:43:57.517Z,94795.03
2023-01-19T16:46:36.628Z,94794.25
2023-01-19T16:49:10.783Z,94803.41
2023-01-19T16:51:37.585Z,94800.66
2023-01-19T16:54:04.822Z,94809.31
2023-01-19T16:56:31.730Z,94803.88
2023-01-19T16:58:59.672Z,94806.63
2023-01-19T17:01:28.844Z,94806.72
2023-01-19T17:03:56.077Z,94809.38
2023-01-19T17:06:23.785Z,94799.94
2023-01-19T17:08:51.637Z,94814.41
2023-01-19T17:11:21.700Z,94820.28
2023-01-19T17:14:06.063Z,94822.91
2023-01-19T17:16:34.847Z,94823.56
2023-01-19T17:19:03.628Z,94809.63
2023-01-19T17:21:30.647Z,94807.22
2023-01-19T17:23:58.405Z,94813.28
2023-01-19T17:26:28.231Z,94816.28
2023-01-19T17:29:02.345Z,94812.91
2023-01-19T17:31:30.534Z,94816.69
2023-01-19T17:33:58.334Z,94823.50
2023-01-19T17:36:27.590Z,94821.09
2023-01-19T17:38:56.658Z,94829.44
2023-01-19T17:41:30.903Z,94833.53
2023-01-19T17:43:58.090Z,94837.06
2023-01-19T17:46:26.677Z,94837.06
2023-01-19T17:48:57.507Z,94841.09
2023-01-19T17:51:24.857Z,94843.50
2023-01-19T17:53:52.447Z,94846.75
2023-01-19T17:56:21.995Z,94846.69
2023-01-19T17:58:49.362Z,94849.09
2023-01-19T18:01:18.771Z,94846.69
2023-01-19T18:03:45.758Z,94839.66
2023-01-19T18:06:12.675Z,94842.41
2023-01-19T18:08:40.889Z,94842.09
2023-01-19T18:11:07.768Z,94846.47
2023-01-19T18:13:34.443Z,94844.63
2023-01-19T18:16:08.210Z,94857.78
2023-01-19T18:18:36.296Z,94850.50
2023-01-19T18:21:08.881Z,94851.63
2023-01-19T18:23:36.197Z,94842.19
2023-01-19T18:26:10.491Z,94846.28
2023-01-19T18:28:37.343Z,94850.06
2023-01-19T18:31:12.499Z,94858.19
2023-01-19T18:33:40.098Z,94860.00
2023-01-19T18:36:07.860Z,94851.66
2023-01-19T18:38:35.653Z,94850.47
2023-01-19T18:41:10.124Z,94855.03
2023-01-19T18:43:36.966Z,94862.59
2023-01-19T18:46:03.912Z,94865.06
2023-01-19T18:48:30.769Z,94861.47
2023-01-19T18:50:57.883Z,94852.22
2023-01-19T18:53:24.503Z,94860.03
2023-01-19T18:55:52.295Z,94857.31
2023-01-19T18:58:20.006Z,94857.09
2023-01-19T19:00:47.593Z,94858.09
2023-01-19T19:03:14.189Z,94856.19
2023-01-19T19:05:42.069Z,94863.34
2023-01-19T19:08:09.212Z,94868.47
2023-01-19T19:10:36.456Z,94869.28
2023-01-19T19:13:03.841Z,94871.47
2023-01-19T19:15:32.456Z,94869.50
2023-01-19T19:17:59.377Z,94867.03
2023-01-19T19:20:26.323Z,94866.22
2023-01-19T19:22:53.216Z,94869.72
2023-01-19T19:25:19.894Z,94868.06
2023-01-19T19:27:51.601Z,94866.66
2023-01-19T19:30:19.792Z,94871.78
2023-01-19T19:32:52.826Z,94874.06
2023-01-19T19:35:21.224Z,94880.09
2023-01-19T19:37:48.929Z,94876.88
2023-01-19T19:40:16.167Z,94887.91
2023-01-19T19:42:42.820Z,94887.66
2023-01-19T19:45:10.055Z,94891.41
2023-01-19T19:47:36.704Z,94892.97
2023-01-19T19:50:03.375Z,94885.97
2023-01-19T19:52:29.987Z,94884.44
2023-01-19T19:54:57.043Z,94885.47
2023-01-19T19:57:24.212Z,94881.09
2023-01-19T19:59:50.777Z,94880.56
2023-01-19T20:02:17.352Z,94883.38
2023-01-19T20:04:44.988Z,94888.78
2023-01-19T20:07:11.694Z,94889.88
2023-01-19T20:09:38.381Z,94886.59
2023-01-19T20:12:05.259Z,94895.19
2023-01-19T20:14:31.887Z,94903.28
2023-01-19T20:16:58.462Z,94900.59
2023-01-19T20:19:25.206Z,94907.59
2023-01-19T20:21:52.179Z,94910.59
2023-01-19T20:24:20.510Z,94906.59
2023-01-19T20:26:52.598Z,94906.06
2023-01-19T20:29:20.398Z,94910.16
2023-01-19T20:31:53.183Z,94907.75
2023-01-19T20:34:21.997Z,94911.78
2023-01-19T20:36:50.330Z,94908.56
2023-01-19T20:39:18.786Z,94914.66
2023-01-19T20:41:45.660Z,94912.84
2023-01-19T20:44:14.959Z,94921.44
2023-01-19T20:46:42.332Z,94912.50
2023-01-19T20:49:08.980Z,94915.75
2023-01-19T20:51:37.372Z,94918.22
2023-01-19T20:54:04.084Z,94924.63
2023-01-19T20:56:30.647Z,94921.38
2023-01-19T20:58:58.969Z,94932.94
2023-01-19T21:01:26.332Z,94936.75
2023-01-19T21:03:52.994Z,94935.13
2023-01-19T21:06:21.104Z,94937.00
2023-01-19T21:08:51.285Z,94939.41
2023-01-19T21:11:20.941Z,94943.75
2023-01-19T21:13:48.936Z,94946.69
2023-01-19T21:16:15.719Z,94955.56
2023-01-19T21:18:42.771Z,94943.75
2023-01-19T21:21:20.847Z,94943.22
2023-01-19T21:24:00.444Z,94945.91
2023-01-19T21:26:29.686Z,94956.16
2023-01-19T21:29:00.690Z,94959.41
2023-01-19T21:31:28.362Z,94963.78
2023-01-19T21:33:56.332Z,94973.47
2023-01-19T21:36:23.988Z,94976.13
2023-01-19T21:38:55.568Z,94971.28
2023-01-19T21:41:22.370Z,94971.84
2023-01-19T21:43:49.134Z,94981.59
2023-01-19T21:46:32.219Z,94982.09
2023-01-19T21:49:03.961Z,94982.66
2023-01-19T21:51:35.328Z,94979.09
2023-01-19T21:54:03.770Z,94979.91
2023-01-19T21:56:31.281Z,94978.78
2023-01-19T21:58:59.498Z,94980.16
2023-01-19T22:01:26.297Z,94977.72
2023-01-19T22:03:54.895Z,94994.41
2023-01-19T22:06:22.021Z,94986.88
2023-01-19T22:08:48.921Z,94990.66
2023-01-19T22:11:18.942Z,94994.44
2023-01-19T22:13:45.928Z,95000.41
2023-01-19T22:16:15.615Z,95007.91
2023-01-19T22:18:44.981Z,95013.81
2023-01-19T22:21:14.620Z,95009.50
2023-01-19T22:23:41.969Z,95021.38
2023-01-19T22:26:10.414Z,95018.16
2023-01-19T22:28:38.102Z,95022.47
2023-01-19T22:31:17.108Z,95020.84
2023-01-19T22:33:44.547Z,95023.84
2023-01-19T22:36:13.976Z,95021.69
2023-01-19T22:38:41.291Z,95017.63
2023-01-19T22:41:14.853Z,95020.31
2023-01-19T22:43:41.710Z,95024.13
2023-01-19T22:46:08.869Z,95022.81
2023-01-19T22:48:36.352Z,95021.47
2023-01-19T22:51:03.127Z,95017.16
2023-01-19T22:53:32.787Z,95029.00
2023-01-19T22:55:59.440Z,95021.25
2023-01-19T22:58:26.113Z,95030.91
2023-01-19T23:00:52.855Z,95018.25
2023-01-19T23:03:19.413Z,95023.66
2023-01-19T23:05:45.959Z,95027.13
2023-01-19T23:08:12.916Z,95027.41
2023-01-19T23:10:40.272Z,95036.84
2023-01-19T23:13:06.907Z,95038.19
2023-01-19T23:15:34.905Z,95046.81
2023-01-19T23:18:01.741Z,95041.41
2023-01-19T23:20:28.498Z,95041.16
2023-01-19T23:22:55.141Z,95041.94
2023-01-19T23:25:22.109Z,95041.97
2023-01-19T23:27:48.680Z,95053.84
2023-01-19T23:30:15.453Z,95048.44
2023-01-19T23:32:46.911Z,95051.38
2023-01-19T23:35:14.712Z,95054.34
2023-01-19T23:37:41.667Z,95054.38
2023-01-19T23:40:10.041Z,95057.31
2023-01-19T23:42:36.884Z,95062.97
2023-01-19T23:45:03.660Z,95062.44
2023-01-19T23:47:30.267Z,95062.16
2023-01-19T23:49:56.865Z,95064.34
2023-01-19T23:52:23.435Z,95062.19
2023-01-19T23:54:50.901Z,95065.13
2023-01-19T23:57:17.508Z,95067.84
2023-01-19T23:59:44.556Z,95072.16
